sensor_id;sensor_type;location;lat;lon;timestamp;pressure;altitude;pressure_sealevel;temperature;humidity
19150;BME280;9707;49.158;8.632;2023-10-09T00:01:04;100995.81;;;23.10;41.17
19150;BME280;9707;49.158;8.632;2023-10-09T00:03:30;100994.03;;;23.09;40.88
19150;BME280;9707;49.158;8.632;2023-10-09T00:05:57;100994.03;;;23.09;41.34
19150;BME280;9707;49.158;8.632;2023-10-09T00:08:22;100988.59;;;23.09;41.49
19150;BME280;9707;49.158;8.632;2023-10-09T00:10:56;100986.88;;;23.08;41.27
19150;BME280;9707;49.158;8.632;2023-10-09T00:13:23;100986.03;;;23.07;41.58
19150;BME280;9707;49.158;8.632;2023-10-09T00:16:05;100988.75;;;23.07;41.56
19150;BME280;9707;49.158;8.632;2023-10-09T00:18:39;100984.28;;;23.06;41.65
19150;BME280;9707;49.158;8.632;2023-10-09T00:21:04;100984.28;;;23.06;41.40
19150;BME280;9707;49.158;8.632;2023-10-09T00:23:37;100981.72;;;23.05;41.70
19150;BME280;9707;49.158;8.632;2023-10-09T00:26:03;100981.72;;;23.05;41.19
19150;BME280;9707;49.158;8.632;2023-10-09T00:28:44;100983.69;;;23.03;40.99
19150;BME280;9707;49.158;8.632;2023-10-09T00:31:12;100976.53;;;23.02;40.69
19150;BME280;9707;49.158;8.632;2023-10-09T00:33:42;100981.06;;;23.01;40.64
19150;BME280;9707;49.158;8.632;2023-10-09T00:36:08;100973.91;;;23.00;40.96
19150;BME280;9707;49.158;8.632;2023-10-09T00:38:35;100978.50;;;23.00;40.79
19150;BME280;9707;49.158;8.632;2023-10-09T00:41:00;100976.63;;;23.00;40.72
19150;BME280;9707;49.158;8.632;2023-10-09T00:43:32;100974.19;;;22.97;41.01
19150;BME280;9707;49.158;8.632;2023-10-09T00:46:01;100975.91;;;22.98;41.69
19150;BME280;9707;49.158;8.632;2023-10-09T00:48:35;100970.59;;;22.97;41.08
19150;BME280;9707;49.158;8.632;2023-10-09T00:51:07;100966.16;;;22.96;40.73
19150;BME280;9707;49.158;8.632;2023-10-09T00:53:56;100964.44;;;22.95;41.64
19150;BME280;9707;49.158;8.632;2023-10-09T00:56:31;100963.56;;;22.94;41.35
19150;BME280;9707;49.158;8.632;2023-10-09T00:59:04;100960.84;;;22.94;40.94
19150;BME280;9707;49.158;8.632;2023-10-09T01:01:56;100958.22;;;22.93;40.83
19150;BME280;9707;49.158;8.632;2023-10-09T01:04:23;100957.38;;;22.92;41.03
19150;BME280;9707;49.158;8.632;2023-10-09T01:06:51;100952.81;;;22.93;41.64
19150;BME280;9707;49.158;8.632;2023-10-09T01:09:33;100948.34;;;22.92;41.21
19150;BME280;9707;49.158;8.632;2023-10-09T01:12:03;100952.06;;;22.91;40.92
19150;BME280;9707;49.158;8.632;2023-10-09T01:14:32;100955.78;;;22.90;40.58
19150;BME280;9707;49.158;8.632;2023-10-09T01:17:03;100947.63;;;22.90;40.99
19150;BME280;9707;49.158;8.632;2023-10-09T01:19:32;100949.47;;;22.89;41.35
19150;BME280;9707;49.158;8.632;2023-10-09T01:21:59;100941.44;;;22.88;40.86
19150;BME280;9707;49.158;8.632;2023-10-09T01:24:29;100940.44;;;22.89;41.16
19150;BME280;9707;49.158;8.632;2023-10-09T01:27:00;100941.44;;;22.88;41.33
19150;BME280;9707;49.158;8.632;2023-10-09T01:29:25;100936.00;;;22.88;41.10
19150;BME280;9707;49.158;8.632;2023-10-09T01:31:55;100931.56;;;22.87;41.30
19150;BME280;9707;49.158;8.632;2023-10-09T01:34:25;100926.25;;;22.85;41.28
19150;BME280;9707;49.158;8.632;2023-10-09T01:37:07;100930.84;;;22.85;41.19
19150;BME280;9707;49.158;8.632;2023-10-09T01:39:49;100931.69;;;22.85;41.84
19150;BME280;9707;49.158;8.632;2023-10-09T01:42:16;100928.13;;;22.85;41.44
19150;BME280;9707;49.158;8.632;2023-10-09T01:44:51;100930.84;;;22.85;41.18
19150;BME280;9707;49.158;8.632;2023-10-09T01:47:17;100928.25;;;22.83;41.54
19150;BME280;9707;49.158;8.632;2023-10-09T01:49:44;100925.66;;;22.82;41.23
19150;BME280;9707;49.158;8.632;2023-10-09T01:52:14;100931.81;;;22.84;41.35
19150;BME280;9707;49.158;8.632;2023-10-09T01:54:46;100920.94;;;22.84;41.51
19150;BME280;9707;49.158;8.632;2023-10-09T01:57:16;100928.25;;;22.83;41.21
19150;BME280;9707;49.158;8.632;2023-10-09T01:59:47;100928.25;;;22.83;41.70
19150;BME280;9707;49.158;8.632;2023-10-09T02:02:18;100917.25;;;22.85;41.60
19150;BME280;9707;49.158;8.632;2023-10-09T02:07:40;100914.06;;;22.80;41.50
19150;BME280;9707;49.158;8.632;2023-10-09T02:10:07;100911.34;;;22.80;41.11
19150;BME280;9707;49.158;8.632;2023-10-09T02:12:52;100916.00;;;22.78;41.16
19150;BME280;9707;49.158;8.632;2023-10-09T02:15:29;100924.16;;;22.78;41.02
19150;BME280;9707;49.158;8.632;2023-10-09T02:20:49;100914.28;;;22.77;41.98
19150;BME280;9707;49.158;8.632;2023-10-09T02:23:31;100916.13;;;22.76;41.46
19150;BME280;9707;49.158;8.632;2023-10-09T02:26:10;100909.84;;;22.76;41.11
19150;BME280;9707;49.158;8.632;2023-10-09T02:28:43;100907.13;;;22.76;41.48
19150;BME280;9707;49.158;8.632;2023-10-09T02:31:12;100915.28;;;22.76;41.19
19150;BME280;9707;49.158;8.632;2023-10-09T02:33:38;100909.84;;;22.76;41.55
19150;BME280;9707;49.158;8.632;2023-10-09T02:36:06;100900.69;;;22.77;41.70
19150;BME280;9707;49.158;8.632;2023-10-09T02:38:32;100896.16;;;22.77;41.75
19150;BME280;9707;49.158;8.632;2023-10-09T02:41:03;100896.25;;;22.76;41.16
19150;BME280;9707;49.158;8.632;2023-10-09T02:43:29;100892.66;;;22.75;40.82
19150;BME280;9707;49.158;8.632;2023-10-09T02:46:05;100891.81;;;22.75;40.83
19150;BME280;9707;49.158;8.632;2023-10-09T02:48:47;100898.22;;;22.74;41.48
19150;BME280;9707;49.158;8.632;2023-10-09T02:51:17;100890.06;;;22.74;41.30
19150;BME280;9707;49.158;8.632;2023-10-09T02:53:56;100891.06;;;22.73;41.05
19150;BME280;9707;49.158;8.632;2023-10-09T02:56:26;100892.78;;;22.74;41.43
19150;BME280;9707;49.158;8.632;2023-10-09T02:59:08;100886.63;;;22.72;41.88
19150;BME280;9707;49.158;8.632;2023-10-09T03:01:39;100888.34;;;22.73;41.70
19150;BME280;9707;49.158;8.632;2023-10-09T03:04:05;100887.50;;;22.72;41.31
19150;BME280;9707;49.158;8.632;2023-10-09T03:06:36;100888.34;;;22.73;41.29
19150;BME280;9707;49.158;8.632;2023-10-09T03:09:08;100882.91;;;22.73;41.82
19150;BME280;9707;49.158;8.632;2023-10-09T03:11:47;100883.91;;;22.72;41.47
19150;BME280;9707;49.158;8.632;2023-10-09T03:14:14;100893.78;;;22.73;41.90
19150;BME280;9707;49.158;8.632;2023-10-09T03:16:41;100892.78;;;22.74;41.88
19150;BME280;9707;49.158;8.632;2023-10-09T03:19:06;100888.34;;;22.73;41.46
19150;BME280;9707;49.158;8.632;2023-10-09T03:21:32;100889.22;;;22.73;41.71
19150;BME280;9707;49.158;8.632;2023-10-09T03:23:57;100890.06;;;22.74;41.71
19150;BME280;9707;49.158;8.632;2023-10-09T03:26:23;100886.50;;;22.73;41.77
19150;BME280;9707;49.158;8.632;2023-10-09T03:28:51;100885.63;;;22.73;41.46
19150;BME280;9707;49.158;8.632;2023-10-09T03:31:18;100884.63;;;22.74;41.92
19150;BME280;9707;49.158;8.632;2023-10-09T03:33:43;100882.91;;;22.73;41.96
19150;BME280;9707;49.158;8.632;2023-10-09T03:36:08;100882.91;;;22.73;42.01
19150;BME280;9707;49.158;8.632;2023-10-09T03:38:40;100885.53;;;22.74;41.96
19150;BME280;9707;49.158;8.632;2023-10-09T03:41:06;100885.53;;;22.74;41.70
19150;BME280;9707;49.158;8.632;2023-10-09T03:43:36;100888.34;;;22.73;41.77
19150;BME280;9707;49.158;8.632;2023-10-09T03:46:08;100881.19;;;22.72;41.73
19150;BME280;9707;49.158;8.632;2023-10-09T03:48:41;100890.22;;;22.72;41.82
19150;BME280;9707;49.158;8.632;2023-10-09T03:51:08;100889.34;;;22.72;41.83
19150;BME280;9707;49.158;8.632;2023-10-09T03:53:37;100896.50;;;22.73;41.48
19150;BME280;9707;49.158;8.632;2023-10-09T03:56:06;100893.91;;;22.71;41.47
19150;BME280;9707;49.158;8.632;2023-10-09T03:58:40;100902.94;;;22.72;41.53
19150;BME280;9707;49.158;8.632;2023-10-09T04:01:18;100895.78;;;22.71;41.87
19150;BME280;9707;49.158;8.632;2023-10-09T04:03:54;100898.59;;;22.69;41.89
19150;BME280;9707;49.158;8.632;2023-10-09T04:06:24;100894.06;;;22.70;41.85
19150;BME280;9707;49.158;8.632;2023-10-09T04:08:54;100894.91;;;22.70;41.71
19150;BME280;9707;49.158;8.632;2023-10-09T04:11:20;100897.63;;;22.70;41.42
19150;BME280;9707;49.158;8.632;2023-10-09T04:13:48;100900.44;;;22.69;41.60
19150;BME280;9707;49.158;8.632;2023-10-09T04:16:19;100896.75;;;22.70;41.71
19150;BME280;9707;49.158;8.632;2023-10-09T04:19:01;100894.28;;;22.67;41.98
19150;BME280;9707;49.158;8.632;2023-10-09T04:21:36;100895.16;;;22.67;41.89
19150;BME280;9707;49.158;8.632;2023-10-09T04:24:06;100884.31;;;22.67;41.71
19150;BME280;9707;49.158;8.632;2023-10-09T04:26:38;100887.00;;;22.67;41.55
19150;BME280;9707;49.158;8.632;2023-10-09T04:29:10;100889.84;;;22.66;41.74
19150;BME280;9707;49.158;8.632;2023-10-09T04:31:36;100892.56;;;22.66;41.62
19150;BME280;9707;49.158;8.632;2023-10-09T04:34:03;100874.56;;;22.65;41.44
19150;BME280;9707;49.158;8.632;2023-10-09T04:36:50;100878.38;;;22.62;41.42
19150;BME280;9707;49.158;8.632;2023-10-09T04:39:16;100879.22;;;22.63;41.44
19150;BME280;9707;49.158;8.632;2023-10-09T04:41:54;100880.22;;;22.62;41.61
19150;BME280;9707;49.158;8.632;2023-10-09T04:44:42;100880.34;;;22.60;41.48
19150;BME280;9707;49.158;8.632;2023-10-09T04:47:27;100876.78;;;22.60;41.53
19150;BME280;9707;49.158;8.632;2023-10-09T04:50:05;100866.03;;;22.58;41.58
19150;BME280;9707;49.158;8.632;2023-10-09T04:52:36;100870.56;;;22.58;40.80
19150;BME280;9707;49.158;8.632;2023-10-09T04:55:01;100869.84;;;22.56;40.87
19150;BME280;9707;49.158;8.632;2023-10-09T04:57:39;100866.41;;;22.54;40.93
19150;BME280;9707;49.158;8.632;2023-10-09T05:00:08;100859.22;;;22.53;41.04
19150;BME280;9707;49.158;8.632;2023-10-09T05:02:59;100860.34;;;22.50;41.01
19150;BME280;9707;49.158;8.632;2023-10-09T05:05:31;100859.72;;;22.47;41.03
19150;BME280;9707;49.158;8.632;2023-10-09T05:08:06;100866.16;;;22.46;41.21
19150;BME280;9707;49.158;8.632;2023-10-09T05:10:51;100860.84;;;22.44;41.40
19150;BME280;9707;49.158;8.632;2023-10-09T05:13:23;100861.72;;;22.45;41.32
19150;BME280;9707;49.158;8.632;2023-10-09T05:16:22;100871.69;;;22.44;41.42
19150;BME280;9707;49.158;8.632;2023-10-09T05:18:51;100868.97;;;22.44;41.54
19150;BME280;9707;49.158;8.632;2023-10-09T05:21:40;100864.44;;;22.45;41.45
19150;BME280;9707;49.158;8.632;2023-10-09T05:24:09;100867.97;;;22.45;41.48
19150;BME280;9707;49.158;8.632;2023-10-09T05:26:42;100873.41;;;22.45;41.47
19150;BME280;9707;49.158;8.632;2023-10-09T05:31:48;100885.16;;;22.46;41.63
19150;BME280;9707;49.158;8.632;2023-10-09T05:34:44;100887.88;;;22.46;41.61
19150;BME280;9707;49.158;8.632;2023-10-09T05:37:31;100885.16;;;22.46;41.46
19150;BME280;9707;49.158;8.632;2023-10-09T05:40:01;100886.88;;;22.47;41.36
19150;BME280;9707;49.158;8.632;2023-10-09T05:42:27;100894.91;;;22.48;41.37
19150;BME280;9707;49.158;8.632;2023-10-09T05:45:08;100903.16;;;22.47;41.31
19150;BME280;9707;49.158;8.632;2023-10-09T05:47:50;100904.16;;;22.46;41.23
19150;BME280;9707;49.158;8.632;2023-10-09T05:50:24;100904.16;;;22.46;41.31
19150;BME280;9707;49.158;8.632;2023-10-09T05:52:50;100907.59;;;22.48;41.35
19150;BME280;9707;49.158;8.632;2023-10-09T05:55:16;100901.44;;;22.46;41.36
19150;BME280;9707;49.158;8.632;2023-10-09T05:57:44;100908.47;;;22.48;41.18
19150;BME280;9707;49.158;8.632;2023-10-09T06:00:28;100905.03;;;22.46;41.38
19150;BME280;9707;49.158;8.632;2023-10-09T06:03:13;100907.88;;;22.45;41.43
19150;BME280;9707;49.158;8.632;2023-10-09T06:05:48;100913.28;;;22.45;41.40
19150;BME280;9707;49.158;8.632;2023-10-09T06:08:28;100919.69;;;22.44;41.55
19150;BME280;9707;49.158;8.632;2023-10-09T06:11:10;100923.16;;;22.46;41.62
19150;BME280;9707;49.158;8.632;2023-10-09T06:13:54;100929.59;;;22.45;41.58
19150;BME280;9707;49.158;8.632;2023-10-09T06:16:36;100932.28;;;22.45;41.65
19150;BME280;9707;49.158;8.632;2023-10-09T06:19:07;100925.00;;;22.45;41.52
19150;BME280;9707;49.158;8.632;2023-10-09T06:21:37;100932.28;;;22.45;41.48
19150;BME280;9707;49.158;8.632;2023-10-09T06:24:23;100922.28;;;22.45;41.72
19150;BME280;9707;49.158;8.632;2023-10-09T06:26:51;100931.31;;;22.46;41.69
19150;BME280;9707;49.158;8.632;2023-10-09T06:29:41;100929.47;;;22.46;41.65
19150;BME280;9707;49.158;8.632;2023-10-09T06:32:10;100928.34;;;22.49;41.67
19150;BME280;9707;49.158;8.632;2023-10-09T06:34:57;100932.91;;;22.48;41.72
19150;BME280;9707;49.158;8.632;2023-10-09T06:37:41;100928.34;;;22.49;41.66
19150;BME280;9707;49.158;8.632;2023-10-09T06:40:25;100939.22;;;22.49;41.65
19150;BME280;9707;49.158;8.632;2023-10-09T06:43:09;100932.91;;;22.48;41.76
19150;BME280;9707;49.158;8.632;2023-10-09T06:45:45;100929.19;;;22.49;41.68
19150;BME280;9707;49.158;8.632;2023-10-09T06:48:13;100926.38;;;22.51;41.55
19150;BME280;9707;49.158;8.632;2023-10-09T06:51:10;100924.66;;;22.50;41.63
19150;BME280;9707;49.158;8.632;2023-10-09T06:53:55;100924.66;;;22.50;41.58
19150;BME280;9707;49.158;8.632;2023-10-09T06:56:21;100926.38;;;22.51;41.52
19150;BME280;9707;49.158;8.632;2023-10-09T06:58:59;100928.97;;;22.52;41.46
19150;BME280;9707;49.158;8.632;2023-10-09T07:01:29;100935.25;;;22.53;41.45
19150;BME280;9707;49.158;8.632;2023-10-09T07:04:04;100938.72;;;22.55;41.49
19150;BME280;9707;49.158;8.632;2023-10-09T07:06:47;100937.72;;;22.56;41.38
19150;BME280;9707;49.158;8.632;2023-10-09T07:09:13;100936.75;;;22.57;41.34
19150;BME280;9707;49.158;8.632;2023-10-09T07:14:15;100936.63;;;22.58;41.38
19150;BME280;9707;49.158;8.632;2023-10-09T07:17:02;100924.88;;;22.58;41.30
19150;BME280;9707;49.158;8.632;2023-10-09T07:19:32;100932.06;;;22.59;41.32
19150;BME280;9707;49.158;8.632;2023-10-09T07:22:04;100921.06;;;22.60;41.32
19150;BME280;9707;49.158;8.632;2023-10-09T07:24:32;100916.50;;;22.61;41.14
19150;BME280;9707;49.158;8.632;2023-10-09T07:27:11;100927.38;;;22.61;41.14
19150;BME280;9707;49.158;8.632;2023-10-09T07:29:40;100929.09;;;22.62;41.26
19150;BME280;9707;49.158;8.632;2023-10-09T07:32:14;100931.69;;;22.63;41.34
19150;BME280;9707;49.158;8.632;2023-10-09T07:34:46;100923.44;;;22.65;41.30
19150;BME280;9707;49.158;8.632;2023-10-09T07:37:22;100937.75;;;22.67;41.28
19150;BME280;9707;49.158;8.632;2023-10-09T07:39:50;100935.91;;;22.67;41.30
19150;BME280;9707;49.158;8.632;2023-10-09T07:42:31;100939.47;;;22.68;41.38
19150;BME280;9707;49.158;8.632;2023-10-09T07:45:10;100940.22;;;22.70;41.37
19150;BME280;9707;49.158;8.632;2023-10-09T07:47:48;100944.66;;;22.71;41.26
19150;BME280;9707;49.158;8.632;2023-10-09T07:50:28;100941.06;;;22.70;41.35
19150;BME280;9707;49.158;8.632;2023-10-09T07:53:29;100933.78;;;22.71;41.32
19150;BME280;9707;49.158;8.632;2023-10-09T07:55:57;100948.97;;;22.73;41.26
19150;BME280;9707;49.158;8.632;2023-10-09T07:58:32;100938.13;;;22.73;41.11
19150;BME280;9707;49.158;8.632;2023-10-09T08:01:10;100938.97;;;22.74;41.15
19150;BME280;9707;49.158;8.632;2023-10-09T08:03:50;100947.00;;;22.75;41.21
19150;BME280;9707;49.158;8.632;2023-10-09T08:06:25;100938.84;;;22.75;41.17
19150;BME280;9707;49.158;8.632;2023-10-09T08:09:03;100949.59;;;22.77;41.37
19150;BME280;9707;49.158;8.632;2023-10-09T08:11:44;100944.16;;;22.77;41.10
19150;BME280;9707;49.158;8.632;2023-10-09T08:14:10;100944.88;;;22.79;41.27
19150;BME280;9707;49.158;8.632;2023-10-09T08:16:48;100949.22;;;22.81;41.31
19150;BME280;9707;49.158;8.632;2023-10-09T08:19:13;100941.94;;;22.82;41.18
19150;BME280;9707;49.158;8.632;2023-10-09T08:21:57;100952.69;;;22.83;41.27
19150;BME280;9707;49.158;8.632;2023-10-09T08:25:04;100949.97;;;22.83;41.11
19150;BME280;9707;49.158;8.632;2023-10-09T08:27:30;100945.38;;;22.84;41.22
19150;BME280;9707;49.158;8.632;2023-10-09T08:29:59;100948.88;;;22.86;41.24
19150;BME280;9707;49.158;8.632;2023-10-09T08:32:47;100956.75;;;22.89;41.27
19150;BME280;9707;49.158;8.632;2023-10-09T08:35:34;100958.63;;;22.88;41.26
19150;BME280;9707;49.158;8.632;2023-10-09T08:38:01;100968.38;;;22.91;41.26
19150;BME280;9707;49.158;8.632;2023-10-09T08:40:38;100971.81;;;22.93;41.29
19150;BME280;9707;49.158;8.632;2023-10-09T08:43:10;100968.97;;;22.94;41.24
19150;BME280;9707;49.158;8.632;2023-10-09T08:45:41;100971.59;;;22.96;41.32
19150;BME280;9707;49.158;8.632;2023-10-09T08:48:10;100972.19;;;22.99;41.34
19150;BME280;9707;49.158;8.632;2023-10-09T08:50:41;100968.47;;;23.00;41.26
19150;BME280;9707;49.158;8.632;2023-10-09T08:53:09;100965.53;;;23.03;41.32
19150;BME280;9707;49.158;8.632;2023-10-09T08:55:37;100964.41;;;23.06;41.17
19150;BME280;9707;49.158;8.632;2023-10-09T08:58:04;100960.72;;;23.07;41.18
19150;BME280;9707;49.158;8.632;2023-10-09T09:00:36;100961.44;;;23.09;41.11
19150;BME280;9707;49.158;8.632;2023-10-09T09:03:03;100962.19;;;23.11;41.07
19150;BME280;9707;49.158;8.632;2023-10-09T09:05:29;100962.91;;;23.13;41.09
19150;BME280;9707;49.158;8.632;2023-10-09T09:07:54;100968.13;;;23.16;41.14
19150;BME280;9707;49.158;8.632;2023-10-09T09:10:28;100961.69;;;23.17;41.18
19150;BME280;9707;49.158;8.632;2023-10-09T09:13:03;100967.03;;;23.18;41.16
19150;BME280;9707;49.158;8.632;2023-10-09T09:15:32;100965.94;;;23.21;41.04
19150;BME280;9707;49.158;8.632;2023-10-09T09:18:07;100966.66;;;23.23;40.95
19150;BME280;9707;49.158;8.632;2023-10-09T09:20:36;100968.38;;;23.24;40.89
19150;BME280;9707;49.158;8.632;2023-10-09T09:23:05;100972.84;;;23.25;41.07
19150;BME280;9707;49.158;8.632;2023-10-09T09:25:45;100980.84;;;23.26;40.79
19150;BME280;9707;49.158;8.632;2023-10-09T09:28:13;100978.13;;;23.26;41.03
19150;BME280;9707;49.158;8.632;2023-10-09T09:30:44;100977.00;;;23.29;40.86
19150;BME280;9707;49.158;8.632;2023-10-09T09:33:28;100973.19;;;23.31;40.92
19150;BME280;9707;49.158;8.632;2023-10-09T09:35:57;100974.78;;;23.34;40.84
19150;BME280;9707;49.158;8.632;2023-10-09T09:38:25;100973.81;;;23.35;41.06
19150;BME280;9707;49.158;8.632;2023-10-09T09:40:54;100969.00;;;23.38;40.98
19150;BME280;9707;49.158;8.632;2023-10-09T09:43:22;100973.31;;;23.41;40.85
19150;BME280;9707;49.158;8.632;2023-10-09T09:45:48;100960.56;;;23.41;41.07
19150;BME280;9707;49.158;8.632;2023-10-09T09:48:16;100963.16;;;23.43;40.77
19150;BME280;9707;49.158;8.632;2023-10-09T09:50:42;100972.78;;;23.47;40.98
19150;BME280;9707;49.158;8.632;2023-10-09T09:53:12;100974.50;;;23.48;40.83
19150;BME280;9707;49.158;8.632;2023-10-09T09:55:50;100967.97;;;23.50;40.92
19150;BME280;9707;49.158;8.632;2023-10-09T09:58:23;100974.13;;;23.52;40.89
19150;BME280;9707;49.158;8.632;2023-10-09T10:00:53;100967.72;;;23.53;41.03
19150;BME280;9707;49.158;8.632;2023-10-09T10:03:26;100955.72;;;23.56;40.97
19150;BME280;9707;49.158;8.632;2023-10-09T10:05:55;100959.16;;;23.58;40.98
19150;BME280;9707;49.158;8.632;2023-10-09T10:08:24;100959.88;;;23.60;40.93
19150;BME280;9707;49.158;8.632;2023-10-09T10:10:58;100957.03;;;23.61;41.01
19150;BME280;9707;49.158;8.632;2023-10-09T10:16:08;100966.69;;;23.65;41.12
19150;BME280;9707;49.158;8.632;2023-10-09T10:18:58;100970.28;;;23.66;40.91
19150;BME280;9707;49.158;8.632;2023-10-09T10:21:34;100970.13;;;23.67;40.94
19150;BME280;9707;49.158;8.632;2023-10-09T10:29:43;100953.31;;;23.73;40.83
19150;BME280;9707;49.158;8.632;2023-10-09T10:32:11;100964.78;;;23.77;40.81
19150;BME280;9707;49.158;8.632;2023-10-09T10:37:12;100958.13;;;23.81;40.93
19150;BME280;9707;49.158;8.632;2023-10-09T10:39:50;100969.00;;;23.81;40.47
19150;BME280;9707;49.158;8.632;2023-10-09T10:42:15;100966.28;;;23.81;40.86
19150;BME280;9707;49.158;8.632;2023-10-09T10:45:02;100960.56;;;23.84;40.68
19150;BME280;9707;49.158;8.632;2023-10-09T10:47:28;100963.03;;;23.87;40.67
19150;BME280;9707;49.158;8.632;2023-10-09T10:50:01;100963.78;;;23.89;40.83
19150;BME280;9707;49.158;8.632;2023-10-09T10:52:45;100969.22;;;23.89;40.74
19150;BME280;9707;49.158;8.632;2023-10-09T10:55:20;100961.81;;;23.91;41.01
19150;BME280;9707;49.158;8.632;2023-10-09T10:57:55;100952.66;;;23.92;40.96
19150;BME280;9707;49.158;8.632;2023-10-09T11:00:28;100956.09;;;23.94;40.95
19150;BME280;9707;49.158;8.632;2023-10-09T11:03:19;100959.56;;;23.96;41.17
19150;BME280;9707;49.158;8.632;2023-10-09T11:05:54;100954.84;;;23.98;41.02
19150;BME280;9707;49.158;8.632;2023-10-09T11:08:24;100963.00;;;23.98;41.08
19150;BME280;9707;49.158;8.632;2023-10-09T11:10:52;100956.44;;;24.00;40.96
19150;BME280;9707;49.158;8.632;2023-10-09T11:13:26;100964.47;;;24.02;40.97
19150;BME280;9707;49.158;8.632;2023-10-09T11:16:17;100961.75;;;24.02;41.06
19150;BME280;9707;49.158;8.632;2023-10-09T11:19:01;100954.31;;;24.04;40.81
19150;BME280;9707;49.158;8.632;2023-10-09T11:21:38;100954.19;;;24.05;40.90
19150;BME280;9707;49.158;8.632;2023-10-09T11:24:08;100953.19;;;24.06;41.12
19150;BME280;9707;49.158;8.632;2023-10-09T11:26:52;100971.41;;;24.06;41.17
19150;BME280;9707;49.158;8.632;2023-10-09T11:29:22;100979.28;;;24.09;41.22
19150;BME280;9707;49.158;8.632;2023-10-09T11:32:07;100972.84;;;24.10;41.27
19150;BME280;9707;49.158;8.632;2023-10-09T11:34:46;100964.56;;;24.11;41.31
19150;BME280;9707;49.158;8.632;2023-10-09T11:37:22;100958.97;;;24.13;41.38
19150;BME280;9707;49.158;8.632;2023-10-09T11:39:54;100946.09;;;24.15;41.27
19150;BME280;9707;49.158;8.632;2023-10-09T11:42:19;100919.47;;;24.18;41.19
19150;BME280;9707;49.158;8.632;2023-10-09T11:45:05;100910.16;;;24.21;41.21
19150;BME280;9707;49.158;8.632;2023-10-09T11:47:49;100910.16;;;24.21;41.19
19150;BME280;9707;49.158;8.632;2023-10-09T11:50:44;100904.47;;;24.24;41.28
19150;BME280;9707;49.158;8.632;2023-10-09T11:53:22;100897.00;;;24.26;41.35
19150;BME280;9707;49.158;8.632;2023-10-09T11:55:48;100889.59;;;24.28;41.31
19150;BME280;9707;49.158;8.632;2023-10-09T11:58:18;100871.25;;;24.30;41.44
19150;BME280;9707;49.158;8.632;2023-10-09T12:00:53;100869.28;;;24.32;41.19
19150;BME280;9707;49.158;8.632;2023-10-09T12:03:27;100880.75;;;24.35;41.07
19150;BME280;9707;49.158;8.632;2023-10-09T12:06:00;100884.19;;;24.37;40.87
19150;BME280;9707;49.158;8.632;2023-10-09T12:08:38;100886.78;;;24.39;40.65
19150;BME280;9707;49.158;8.632;2023-10-09T12:11:05;100879.34;;;24.41;40.48
19150;BME280;9707;49.158;8.632;2023-10-09T12:13:34;100871.03;;;24.42;40.14
19150;BME280;9707;49.158;8.632;2023-10-09T12:15:59;100875.34;;;24.45;40.01
19150;BME280;9707;49.158;8.632;2023-10-09T12:18:25;100866.91;;;24.48;39.86
19150;BME280;9707;49.158;8.632;2023-10-09T12:20:51;100862.19;;;24.50;39.90
19150;BME280;9707;49.158;8.632;2023-10-09T12:23:19;100857.47;;;24.52;39.83
19150;BME280;9707;49.158;8.632;2023-10-09T12:25:44;100869.09;;;24.54;39.61
19150;BME280;9707;49.158;8.632;2023-10-09T12:28:10;100866.25;;;24.55;39.27
19150;BME280;9707;49.158;8.632;2023-10-09T12:30:37;100861.63;;;24.56;38.91
19150;BME280;9707;49.158;8.632;2023-10-09T12:33:05;100865.09;;;24.58;38.69
19150;BME280;9707;49.158;8.632;2023-10-09T12:35:36;100850.50;;;24.59;38.73
19150;BME280;9707;49.158;8.632;2023-10-09T12:38:02;100847.78;;;24.59;38.74
19150;BME280;9707;49.158;8.632;2023-10-09T12:40:28;100848.50;;;24.61;38.57
19150;BME280;9707;49.158;8.632;2023-10-09T12:42:56;100847.53;;;24.62;38.10
19150;BME280;9707;49.158;8.632;2023-10-09T12:45:24;100839.34;;;24.62;37.48
19150;BME280;9707;49.158;8.632;2023-10-09T12:47:58;100841.06;;;24.63;37.99
19150;BME280;9707;49.158;8.632;2023-10-09T12:50:29;100840.78;;;24.66;38.02
19150;BME280;9707;49.158;8.632;2023-10-09T12:52:57;100855.97;;;24.68;37.32
19150;BME280;9707;49.158;8.632;2023-10-09T12:55:38;100858.56;;;24.70;37.54
19150;BME280;9707;49.158;8.632;2023-10-09T12:58:06;100851.28;;;24.70;37.87
19150;BME280;9707;49.158;8.632;2023-10-09T13:00:38;100850.97;;;24.73;37.90
19150;BME280;9707;49.158;8.632;2023-10-09T13:03:10;100851.72;;;24.75;37.97
19150;BME280;9707;49.158;8.632;2023-10-09T13:05:50;100853.44;;;24.76;38.59
19150;BME280;9707;49.158;8.632;2023-10-09T13:08:23;100863.22;;;24.79;38.48
19150;BME280;9707;49.158;8.632;2023-10-09T13:10:56;100856.75;;;24.80;37.64
19150;BME280;9707;49.158;8.632;2023-10-09T13:13:25;100850.28;;;24.81;36.93
19150;BME280;9707;49.158;8.632;2023-10-09T13:16:01;100836.66;;;24.81;37.26
19150;BME280;9707;49.158;8.632;2023-10-09T13:18:29;100836.53;;;24.82;37.70
19150;BME280;9707;49.158;8.632;2023-10-09T13:20:54;100834.38;;;24.86;37.01
19150;BME280;9707;49.158;8.632;2023-10-09T13:23:19;100835.25;;;24.86;36.74
19150;BME280;9707;49.158;8.632;2023-10-09T13:25:46;100836.13;;;24.87;35.01
19150;BME280;9707;49.158;8.632;2023-10-09T13:28:12;100824.38;;;24.86;34.91
19150;BME280;9707;49.158;8.632;2023-10-09T13:30:38;100812.44;;;24.87;35.17
19150;BME280;9707;49.158;8.632;2023-10-09T13:33:14;100815.03;;;24.89;34.86
19150;BME280;9707;49.158;8.632;2023-10-09T13:35:42;100827.66;;;24.90;34.63
19150;BME280;9707;49.158;8.632;2023-10-09T13:38:16;100827.66;;;24.90;34.52
19150;BME280;9707;49.158;8.632;2023-10-09T13:40:42;100828.38;;;24.92;34.05
19150;BME280;9707;49.158;8.632;2023-10-09T13:43:07;100818.34;;;24.92;34.57
19150;BME280;9707;49.158;8.632;2023-10-09T13:45:40;100813.59;;;24.94;33.60
19150;BME280;9707;49.158;8.632;2023-10-09T13:48:05;100812.47;;;24.97;33.97
19150;BME280;9707;49.158;8.632;2023-10-09T13:50:30;100807.00;;;24.97;33.67
19150;BME280;9707;49.158;8.632;2023-10-09T13:52:59;100804.03;;;25.00;34.69